sensor_id;sensor_type;location;lat;lon;timestamp;temperature;humidity
14097;DHT22;7125;48.106;11.544;2022-07-30T00:00:07;16.20;99.90
14097;DHT22;7125;48.106;11.544;2022-07-30T00:02:35;16.20;99.90
14097;DHT22;7125;48.106;11.544;2022-07-30T00:05:02;16.10;99.90
14097;DHT22;7125;48.106;11.544;2022-07-30T00:07:29;16.10;99.90
14097;DHT22;7125;48.106;11.544;2022-07-30T00:09:56;16.10;99.90
14097;DHT22;7125;48.106;11.544;2022-07-30T00:12:24;16.10;99.90
14097;DHT22;7125;48.106;11.544;2022-07-30T00:14:51;16.10;99.90
14097;DHT22;7125;48.106;11.544;2022-07-30T00:17:18;16.10;99.90
14097;DHT22;7125;48.106;11.544;2022-07-30T00:19:44;16.10;99.90
14097;DHT22;7125;48.106;11.544;2022-07-30T00:22:12;16.00;99.90
14097;DHT22;7125;48.106;11.544;2022-07-30T00:24:39;16.10;99.90
14097;DHT22;7125;48.106;11.544;2022-07-30T00:27:06;16.10;99.90
14097;DHT22;7125;48.106;11.544;2022-07-30T00:29:34;16.10;99.90
14097;DHT22;7125;48.106;11.544;2022-07-30T00:32:01;16.10;99.90
14097;DHT22;7125;48.106;11.544;2022-07-30T00:34:27;16.10;99.90
14097;DHT22;7125;48.106;11.544;2022-07-30T00:36:54;16.20;99.90
14097;DHT22;7125;48.106;11.544;2022-07-30T00:39:21;16.20;99.90
14097;DHT22;7125;48.106;11.544;2022-07-30T00:41:52;16.20;99.90
14097;DHT22;7125;48.106;11.544;2022-07-30T00:44:20;16.20;99.90
14097;DHT22;7125;48.106;11.544;2022-07-30T00:46:48;16.20;99.90
14097;DHT22;7125;48.106;11.544;2022-07-30T00:49:15;16.30;99.90
14097;DHT22;7125;48.106;11.544;2022-07-30T00:51:42;16.30;99.90
14097;DHT22;7125;48.106;11.544;2022-07-30T00:54:08;16.30;99.90
14097;DHT22;7125;48.106;11.544;2022-07-30T00:56:35;16.30;99.90
14097;DHT22;7125;48.106;11.544;2022-07-30T00:59:02;16.30;99.90
14097;DHT22;7125;48.106;11.544;2022-07-30T01:01:30;16.30;99.90
14097;DHT22;7125;48.106;11.544;2022-07-30T01:03:59;16.30;99.90
14097;DHT22;7125;48.106;11.544;2022-07-30T01:06:26;16.30;99.90
14097;DHT22;7125;48.106;11.544;2022-07-30T01:08:53;16.30;99.90
14097;DHT22;7125;48.106;11.544;2022-07-30T01:11:20;16.30;99.90
14097;DHT22;7125;48.106;11.544;2022-07-30T01:13:47;16.30;99.90
14097;DHT22;7125;48.106;11.544;2022-07-30T01:16:14;16.30;99.90
14097;DHT22;7125;48.106;11.544;2022-07-30T01:18:41;16.30;99.90
14097;DHT22;7125;48.106;11.544;2022-07-30T01:21:33;16.40;99.90
14097;DHT22;7125;48.106;11.544;2022-07-30T01:24:11;16.40;99.90
14097;DHT22;7125;48.106;11.544;2022-07-30T01:26:43;16.30;99.90
14097;DHT22;7125;48.106;11.544;2022-07-30T01:29:12;16.40;99.90
14097;DHT22;7125;48.106;11.544;2022-07-30T01:31:41;16.40;99.90
14097;DHT22;7125;48.106;11.544;2022-07-30T01:34:11;16.40;99.90
14097;DHT22;7125;48.106;11.544;2022-07-30T01:36:41;16.40;99.90
14097;DHT22;7125;48.106;11.544;2022-07-30T01:39:10;16.40;99.90
14097;DHT22;7125;48.106;11.544;2022-07-30T01:41:38;16.40;99.90
14097;DHT22;7125;48.106;11.544;2022-07-30T01:44:09;16.40;99.90
14097;DHT22;7125;48.106;11.544;2022-07-30T01:46:38;16.40;99.90
14097;DHT22;7125;48.106;11.544;2022-07-30T01:49:05;16.40;99.90
14097;DHT22;7125;48.106;11.544;2022-07-30T01:51:34;16.40;99.90
14097;DHT22;7125;48.106;11.544;2022-07-30T01:54:05;16.40;99.90
14097;DHT22;7125;48.106;11.544;2022-07-30T01:56:34;16.40;99.90
14097;DHT22;7125;48.106;11.544;2022-07-30T01:59:04;16.40;99.90
14097;DHT22;7125;48.106;11.544;2022-07-30T02:01:34;16.40;99.90
14097;DHT22;7125;48.106;11.544;2022-07-30T02:04:02;16.40;99.90
14097;DHT22;7125;48.106;11.544;2022-07-30T02:06:36;16.40;99.90
14097;DHT22;7125;48.106;11.544;2022-07-30T02:09:07;16.40;99.90
14097;DHT22;7125;48.106;11.544;2022-07-30T02:11:40;16.30;99.90
14097;DHT22;7125;48.106;11.544;2022-07-30T02:14:30;16.30;99.90
14097;DHT22;7125;48.106;11.544;2022-07-30T02:17:02;16.30;99.90
14097;DHT22;7125;48.106;11.544;2022-07-30T02:19:35;16.30;99.90
14097;DHT22;7125;48.106;11.544;2022-07-30T02:22:08;16.30;99.90
14097;DHT22;7125;48.106;11.544;2022-07-30T02:24:37;16.30;99.90
14097;DHT22;7125;48.106;11.544;2022-07-30T02:27:11;16.30;99.90
14097;DHT22;7125;48.106;11.544;2022-07-30T02:29:41;16.30;99.90
14097;DHT22;7125;48.106;11.544;2022-07-30T02:32:14;16.30;99.90
14097;DHT22;7125;48.106;11.544;2022-07-30T02:34:46;16.30;99.90
14097;DHT22;7125;48.106;11.544;2022-07-30T02:37:15;16.30;99.90
14097;DHT22;7125;48.106;11.544;2022-07-30T02:39:47;16.30;99.90
14097;DHT22;7125;48.106;11.544;2022-07-30T02:42:15;16.20;99.90
14097;DHT22;7125;48.106;11.544;2022-07-30T02:44:44;16.20;99.90
14097;DHT22;7125;48.106;11.544;2022-07-30T02:47:13;16.20;99.90
14097;DHT22;7125;48.106;11.544;2022-07-30T02:49:59;16.20;99.90
14097;DHT22;7125;48.106;11.544;2022-07-30T02:52:27;16.20;99.90
14097;DHT22;7125;48.106;11.544;2022-07-30T02:54:56;16.20;99.90
14097;DHT22;7125;48.106;11.544;2022-07-30T02:57:24;16.20;99.90
14097;DHT22;7125;48.106;11.544;2022-07-30T02:59:53;16.20;99.90
14097;DHT22;7125;48.106;11.544;2022-07-30T03:02:23;16.20;99.90
14097;DHT22;7125;48.106;11.544;2022-07-30T03:04:50;16.10;99.90
14097;DHT22;7125;48.106;11.544;2022-07-30T03:07:19;16.10;99.90
14097;DHT22;7125;48.106;11.544;2022-07-30T03:09:46;16.10;99.90
14097;DHT22;7125;48.106;11.544;2022-07-30T03:12:15;16.10;99.90
14097;DHT22;7125;48.106;11.544;2022-07-30T03:14:42;16.10;99.90
14097;DHT22;7125;48.106;11.544;2022-07-30T03:17:11;16.10;99.90
14097;DHT22;7125;48.106;11.544;2022-07-30T03:19:44;16.10;99.90
14097;DHT22;7125;48.106;11.544;2022-07-30T03:22:11;16.10;99.90
14097;DHT22;7125;48.106;11.544;2022-07-30T03:24:42;16.10;99.90
14097;DHT22;7125;48.106;11.544;2022-07-30T03:27:09;16.10;99.90
14097;DHT22;7125;48.106;11.544;2022-07-30T03:29:39;16.10;99.90
14097;DHT22;7125;48.106;11.544;2022-07-30T03:32:07;16.10;99.90
14097;DHT22;7125;48.106;11.544;2022-07-30T03:34:35;16.10;99.90
14097;DHT22;7125;48.106;11.544;2022-07-30T03:37:04;16.20;99.90
14097;DHT22;7125;48.106;11.544;2022-07-30T03:39:34;16.10;99.90
14097;DHT22;7125;48.106;11.544;2022-07-30T03:42:05;16.10;99.90
14097;DHT22;7125;48.106;11.544;2022-07-30T03:44:33;16.10;99.90
14097;DHT22;7125;48.106;11.544;2022-07-30T03:47:04;16.10;99.90
14097;DHT22;7125;48.106;11.544;2022-07-30T03:49:38;16.10;99.90
14097;DHT22;7125;48.106;11.544;2022-07-30T03:52:07;16.10;99.90
14097;DHT22;7125;48.106;11.544;2022-07-30T03:54:34;16.10;99.90
14097;DHT22;7125;48.106;11.544;2022-07-30T03:57:21;16.10;99.90
14097;DHT22;7125;48.106;11.544;2022-07-30T03:59:48;16.10;99.90
14097;DHT22;7125;48.106;11.544;2022-07-30T04:02:18;16.20;99.90
14097;DHT22;7125;48.106;11.544;2022-07-30T04:05:16;16.20;99.90
14097;DHT22;7125;48.106;11.544;2022-07-30T04:07:46;16.20;99.90
14097;DHT22;7125;48.106;11.544;2022-07-30T04:10:16;16.20;99.90
14097;DHT22;7125;48.106;11.544;2022-07-30T04:12:58;16.20;99.90
14097;DHT22;7125;48.106;11.544;2022-07-30T04:15:26;16.20;99.90
14097;DHT22;7125;48.106;11.544;2022-07-30T04:17:57;16.20;99.90
14097;DHT22;7125;48.106;11.544;2022-07-30T04:20:30;16.20;99.90
14097;DHT22;7125;48.106;11.544;2022-07-30T04:23:00;16.20;99.90
14097;DHT22;7125;48.106;11.544;2022-07-30T04:25:28;16.20;99.90
14097;DHT22;7125;48.106;11.544;2022-07-30T04:27:56;16.20;99.90
14097;DHT22;7125;48.106;11.544;2022-07-30T04:30:23;16.20;99.90
14097;DHT22;7125;48.106;11.544;2022-07-30T04:32:50;16.20;99.90
14097;DHT22;7125;48.106;11.544;2022-07-30T04:35:36;16.20;99.90
14097;DHT22;7125;48.106;11.544;2022-07-30T04:38:16;16.20;99.90
14097;DHT22;7125;48.106;11.544;2022-07-30T04:40:48;16.20;99.90
14097;DHT22;7125;48.106;11.544;2022-07-30T04:43:16;16.20;99.90
14097;DHT22;7125;48.106;11.544;2022-07-30T04:45:42;16.20;99.90
14097;DHT22;7125;48.106;11.544;2022-07-30T04:48:10;16.20;99.90
14097;DHT22;7125;48.106;11.544;2022-07-30T04:50:44;16.20;99.90
14097;DHT22;7125;48.106;11.544;2022-07-30T04:53:17;16.20;99.90
14097;DHT22;7125;48.106;11.544;2022-07-30T04:55:51;16.20;99.90
14097;DHT22;7125;48.106;11.544;2022-07-30T04:58:23;16.30;99.90
14097;DHT22;7125;48.106;11.544;2022-07-30T05:00:53;16.30;99.90
14097;DHT22;7125;48.106;11.544;2022-07-30T05:03:26;16.30;99.90
14097;DHT22;7125;48.106;11.544;2022-07-30T05:05:55;16.30;99.90
14097;DHT22;7125;48.106;11.544;2022-07-30T05:08:23;16.40;99.90
14097;DHT22;7125;48.106;11.544;2022-07-30T05:10:51;16.40;99.90
14097;DHT22;7125;48.106;11.544;2022-07-30T05:13:18;16.40;99.90
14097;DHT22;7125;48.106;11.544;2022-07-30T05:15:45;16.40;99.90
14097;DHT22;7125;48.106;11.544;2022-07-30T05:18:15;16.40;99.90
14097;DHT22;7125;48.106;11.544;2022-07-30T05:20:43;16.40;99.90
14097;DHT22;7125;48.106;11.544;2022-07-30T05:23:14;16.40;99.90
14097;DHT22;7125;48.106;11.544;2022-07-30T05:25:48;16.40;99.90
14097;DHT22;7125;48.106;11.544;2022-07-30T05:28:28;16.40;99.90
14097;DHT22;7125;48.106;11.544;2022-07-30T05:30:57;16.50;99.90
14097;DHT22;7125;48.106;11.544;2022-07-30T05:33:24;16.50;99.90
14097;DHT22;7125;48.106;11.544;2022-07-30T05:35:51;16.50;99.90
14097;DHT22;7125;48.106;11.544;2022-07-30T05:38:18;16.50;99.90
14097;DHT22;7125;48.106;11.544;2022-07-30T05:41:09;16.50;99.90
14097;DHT22;7125;48.106;11.544;2022-07-30T05:44:02;16.50;99.90
14097;DHT22;7125;48.106;11.544;2022-07-30T05:46:29;16.50;99.90
14097;DHT22;7125;48.106;11.544;2022-07-30T05:48:57;16.60;99.90
14097;DHT22;7125;48.106;11.544;2022-07-30T05:51:24;16.60;99.90
14097;DHT22;7125;48.106;11.544;2022-07-30T05:53:50;16.60;99.90
14097;DHT22;7125;48.106;11.544;2022-07-30T05:56:38;16.60;99.90
14097;DHT22;7125;48.106;11.544;2022-07-30T05:59:37;16.60;99.90
14097;DHT22;7125;48.106;11.544;2022-07-30T06:02:07;16.60;99.90
14097;DHT22;7125;48.106;11.544;2022-07-30T06:04:54;16.60;99.90
14097;DHT22;7125;48.106;11.544;2022-07-30T06:07:22;16.50;99.90
14097;DHT22;7125;48.106;11.544;2022-07-30T06:09:51;16.60;99.90
14097;DHT22;7125;48.106;11.544;2022-07-30T06:12:19;16.60;99.90
14097;DHT22;7125;48.106;11.544;2022-07-30T06:14:47;16.60;99.90
14097;DHT22;7125;48.106;11.544;2022-07-30T06:17:21;16.60;99.90
14097;DHT22;7125;48.106;11.544;2022-07-30T06:20:03;16.60;99.90
14097;DHT22;7125;48.106;11.544;2022-07-30T06:22:44;16.60;99.90
14097;DHT22;7125;48.106;11.544;2022-07-30T06:25:19;16.70;99.90
14097;DHT22;7125;48.106;11.544;2022-07-30T06:27:48;16.80;99.90
14097;DHT22;7125;48.106;11.544;2022-07-30T06:30:15;16.80;99.90
14097;DHT22;7125;48.106;11.544;2022-07-30T06:32:42;16.80;99.90
14097;DHT22;7125;48.106;11.544;2022-07-30T06:35:10;16.90;99.90
14097;DHT22;7125;48.106;11.544;2022-07-30T06:37:37;16.90;99.90
14097;DHT22;7125;48.106;11.544;2022-07-30T06:40:05;16.90;99.90
14097;DHT22;7125;48.106;11.544;2022-07-30T06:42:44;16.90;99.90
14097;DHT22;7125;48.106;11.544;2022-07-30T06:45:34;16.90;99.90
14097;DHT22;7125;48.106;11.544;2022-07-30T06:48:16;16.90;99.90
14097;DHT22;7125;48.106;11.544;2022-07-30T06:50:43;16.90;99.90
14097;DHT22;7125;48.106;11.544;2022-07-30T06:53:10;16.90;99.90
14097;DHT22;7125;48.106;11.544;2022-07-30T06:56:00;16.90;99.90
14097;DHT22;7125;48.106;11.544;2022-07-30T06:58:36;16.90;99.90
14097;DHT22;7125;48.106;11.544;2022-07-30T07:01:25;16.80;99.90
14097;DHT22;7125;48.106;11.544;2022-07-30T07:03:54;16.90;99.90
14097;DHT22;7125;48.106;11.544;2022-07-30T07:06:21;17.10;99.90
14097;DHT22;7125;48.106;11.544;2022-07-30T07:08:47;17.20;99.90
14097;DHT22;7125;48.106;11.544;2022-07-30T07:11:22;17.40;99.90
14097;DHT22;7125;48.106;11.544;2022-07-30T07:13:53;17.60;99.90
14097;DHT22;7125;48.106;11.544;2022-07-30T07:16:33;17.70;99.90
14097;DHT22;7125;48.106;11.544;2022-07-30T07:19:16;17.80;99.90
14097;DHT22;7125;48.106;11.544;2022-07-30T07:21:43;17.90;99.90
14097;DHT22;7125;48.106;11.544;2022-07-30T07:24:10;18.00;99.90
14097;DHT22;7125;48.106;11.544;2022-07-30T07:26:52;18.10;99.90
14097;DHT22;7125;48.106;11.544;2022-07-30T07:29:19;18.10;99.90
14097;DHT22;7125;48.106;11.544;2022-07-30T07:31:47;18.10;99.90
14097;DHT22;7125;48.106;11.544;2022-07-30T07:34:15;18.20;99.90
14097;DHT22;7125;48.106;11.544;2022-07-30T07:36:41;18.30;99.90
14097;DHT22;7125;48.106;11.544;2022-07-30T07:39:09;18.40;99.90
14097;DHT22;7125;48.106;11.544;2022-07-30T07:41:38;18.50;99.90
14097;DHT22;7125;48.106;11.544;2022-07-30T07:44:05;18.60;99.90
14097;DHT22;7125;48.106;11.544;2022-07-30T07:46:34;18.70;99.90
14097;DHT22;7125;48.106;11.544;2022-07-30T07:49:04;18.70;99.90
14097;DHT22;7125;48.106;11.544;2022-07-30T07:51:40;18.80;99.90
14097;DHT22;7125;48.106;11.544;2022-07-30T07:54:11;18.90;99.90
14097;DHT22;7125;48.106;11.544;2022-07-30T07:56:38;19.00;99.90
14097;DHT22;7125;48.106;11.544;2022-07-30T07:59:08;19.00;99.90
14097;DHT22;7125;48.106;11.544;2022-07-30T08:01:35;19.10;99.90
14097;DHT22;7125;48.106;11.544;2022-07-30T08:04:33;19.20;99.90
14097;DHT22;7125;48.106;11.544;2022-07-30T08:07:20;19.30;99.90
14097;DHT22;7125;48.106;11.544;2022-07-30T08:10:06;19.40;99.90
14097;DHT22;7125;48.106;11.544;2022-07-30T08:12:51;19.50;99.90
14097;DHT22;7125;48.106;11.544;2022-07-30T08:15:30;19.60;99.90
14097;DHT22;7125;48.106;11.544;2022-07-30T08:18:15;19.60;99.90
14097;DHT22;7125;48.106;11.544;2022-07-30T08:20:55;19.70;99.90
14097;DHT22;7125;48.106;11.544;2022-07-30T08:23:27;19.70;99.90
14097;DHT22;7125;48.106;11.544;2022-07-30T08:25:55;19.70;99.90
14097;DHT22;7125;48.106;11.544;2022-07-30T08:28:22;19.80;99.90
14097;DHT22;7125;48.106;11.544;2022-07-30T08:30:50;19.80;99.90
14097;DHT22;7125;48.106;11.544;2022-07-30T08:33:18;19.80;99.90
14097;DHT22;7125;48.106;11.544;2022-07-30T08:35:45;19.90;99.90
14097;DHT22;7125;48.106;11.544;2022-07-30T08:38:14;20.00;99.90
14097;DHT22;7125;48.106;11.544;2022-07-30T08:40:41;20.20;99.90
14097;DHT22;7125;48.106;11.544;2022-07-30T08:43:08;20.40;99.90
14097;DHT22;7125;48.106;11.544;2022-07-30T08:45:36;20.40;99.90
14097;DHT22;7125;48.106;11.544;2022-07-30T08:48:16;20.40;99.90
14097;DHT22;7125;48.106;11.544;2022-07-30T08:50:46;20.30;99.90
14097;DHT22;7125;48.106;11.544;2022-07-30T08:53:44;20.20;99.90
14097;DHT22;7125;48.106;11.544;2022-07-30T08:56:12;20.30;99.90
14097;DHT22;7125;48.106;11.544;2022-07-30T08:58:41;20.40;99.90
14097;DHT22;7125;48.106;11.544;2022-07-30T09:01:08;20.50;99.90
14097;DHT22;7125;48.106;11.544;2022-07-30T09:03:37;20.70;99.90
14097;DHT22;7125;48.106;11.544;2022-07-30T09:06:05;20.80;99.90
14097;DHT22;7125;48.106;11.544;2022-07-30T09:08:33;20.90;99.90
14097;DHT22;7125;48.106;11.544;2022-07-30T09:11:01;20.90;99.90
14097;DHT22;7125;48.106;11.544;2022-07-30T09:13:32;20.90;99.90
14097;DHT22;7125;48.106;11.544;2022-07-30T09:16:01;20.90;99.90
14097;DHT22;7125;48.106;11.544;2022-07-30T09:18:31;20.90;99.90
14097;DHT22;7125;48.106;11.544;2022-07-30T09:20:59;21.00;99.90
14097;DHT22;7125;48.106;11.544;2022-07-30T09:23:27;21.00;99.90
14097;DHT22;7125;48.106;11.544;2022-07-30T09:26:16;21.10;99.90
14097;DHT22;7125;48.106;11.544;2022-07-30T09:29:15;21.10;99.90
14097;DHT22;7125;48.106;11.544;2022-07-30T09:32:14;21.20;99.90
14097;DHT22;7125;48.106;11.544;2022-07-30T09:35:11;21.20;99.90
14097;DHT22;7125;48.106;11.544;2022-07-30T09:38:05;21.40;99.90
14097;DHT22;7125;48.106;11.544;2022-07-30T09:40:51;21.50;99.90
14097;DHT22;7125;48.106;11.544;2022-07-30T09:43:28;21.50;99.90
14097;DHT22;7125;48.106;11.544;2022-07-30T09:46:08;21.60;99.90
14097;DHT22;7125;48.106;11.544;2022-07-30T09:48:36;21.50;99.90
14097;DHT22;7125;48.106;11.544;2022-07-30T09:51:03;21.50;99.90
14097;DHT22;7125;48.106;11.544;2022-07-30T09:53:31;21.30;99.90
14097;DHT22;7125;48.106;11.544;2022-07-30T09:55:58;21.30;99.90
14097;DHT22;7125;48.106;11.544;2022-07-30T09:58:38;21.40;99.90
14097;DHT22;7125;48.106;11.544;2022-07-30T10:01:06;21.40;99.90
14097;DHT22;7125;48.106;11.544;2022-07-30T10:03:53;21.60;99.90
14097;DHT22;7125;48.106;11.544;2022-07-30T10:06:31;21.70;99.90
14097;DHT22;7125;48.106;11.544;2022-07-30T10:09:00;21.80;99.90
14097;DHT22;7125;48.106;11.544;2022-07-30T10:11:27;21.80;99.90
14097;DHT22;7125;48.106;11.544;2022-07-30T10:13:58;21.90;99.90
14097;DHT22;7125;48.106;11.544;2022-07-30T10:16:28;22.00;99.90
14097;DHT22;7125;48.106;11.544;2022-07-30T10:18:57;22.10;99.90
14097;DHT22;7125;48.106;11.544;2022-07-30T10:21:25;22.20;99.90
14097;DHT22;7125;48.106;11.544;2022-07-30T10:24:23;22.30;99.70
14097;DHT22;7125;48.106;11.544;2022-07-30T10:26:51;22.30;99.60
14097;DHT22;7125;48.106;11.544;2022-07-30T10:29:39;22.30;99.60
14097;DHT22;7125;48.106;11.544;2022-07-30T10:32:06;22.30;98.80
14097;DHT22;7125;48.106;11.544;2022-07-30T10:34:34;22.30;99.90
14097;DHT22;7125;48.106;11.544;2022-07-30T10:37:03;22.40;99.90
14097;DHT22;7125;48.106;11.544;2022-07-30T10:39:40;22.60;98.50
14097;DHT22;7125;48.106;11.544;2022-07-30T10:42:19;22.50;97.50
14097;DHT22;7125;48.106;11.544;2022-07-30T10:45:02;22.40;97.50
14097;DHT22;7125;48.106;11.544;2022-07-30T10:47:34;22.50;97.70
14097;DHT22;7125;48.106;11.544;2022-07-30T10:50:08;22.50;97.20
14097;DHT22;7125;48.106;11.544;2022-07-30T10:52:50;22.40;96.90
14097;DHT22;7125;48.106;11.544;2022-07-30T10:55:19;22.40;95.90
14097;DHT22;7125;48.106;11.544;2022-07-30T10:57:57;22.50;96.10
14097;DHT22;7125;48.106;11.544;2022-07-30T11:00:25;22.50;95.90
14097;DHT22;7125;48.106;11.544;2022-07-30T11:03:11;22.50;95.60
14097;DHT22;7125;48.106;11.544;2022-07-30T11:05:38;22.70;95.30
14097;DHT22;7125;48.106;11.544;2022-07-30T11:08:27;22.80;95.10
14097;DHT22;7125;48.106;11.544;2022-07-30T11:10:54;22.80;94.50
14097;DHT22;7125;48.106;11.544;2022-07-30T11:13:52;22.90;94.70
14097;DHT22;7125;48.106;11.544;2022-07-30T11:16:21;23.00;95.60
14097;DHT22;7125;48.106;11.544;2022-07-30T11:19:04;22.90;94.10
14097;DHT22;7125;48.106;11.544;2022-07-30T11:21:31;22.80;94.30
14097;DHT22;7125;48.106;11.544;2022-07-30T11:23:59;22.80;93.40
14097;DHT22;7125;48.106;11.544;2022-07-30T11:26:50;22.70;92.60
14097;DHT22;7125;48.106;11.544;2022-07-30T11:29:37;22.60;93.30
14097;DHT22;7125;48.106;11.544;2022-07-30T11:32:25;22.50;93.70
14097;DHT22;7125;48.106;11.544;2022-07-30T11:35:10;22.40;94.20
14097;DHT22;7125;48.106;11.544;2022-07-30T11:37:58;22.50;94.50
14097;DHT22;7125;48.106;11.544;2022-07-30T11:40:27;22.70;93.90
14097;DHT22;7125;48.106;11.544;2022-07-30T11:43:17;22.80;93.70
14097;DHT22;7125;48.106;11.544;2022-07-30T11:45:45;22.90;93.50
14097;DHT22;7125;48.106;11.544;2022-07-30T11:48:15;23.00;93.00
14097;DHT22;7125;48.106;11.544;2022-07-30T11:50:44;23.00;93.60
14097;DHT22;7125;48.106;11.544;2022-07-30T11:53:15;23.00;93.10
14097;DHT22;7125;48.106;11.544;2022-07-30T11:55:43;22.90;93.10
14097;DHT22;7125;48.106;11.544;2022-07-30T11:58:23;22.80;93.60
14097;DHT22;7125;48.106;11.544;2022-07-30T12:00:50;22.60;93.30
14097;DHT22;7125;48.106;11.544;2022-07-30T12:03:20;22.60;93.10
14097;DHT22;7125;48.106;11.544;2022-07-30T12:05:49;22.60;93.30
14097;DHT22;7125;48.106;11.544;2022-07-30T12:08:16;22.60;93.80
14097;DHT22;7125;48.106;11.544;2022-07-30T12:10:53;22.70;93.00
14097;DHT22;7125;48.106;11.544;2022-07-30T12:13:20;22.70;93.00
14097;DHT22;7125;48.106;11.544;2022-07-30T12:15:48;22.80;92.50
14097;DHT22;7125;48.106;11.544;2022-07-30T12:18:24;22.60;92.70
14097;DHT22;7125;48.106;11.544;2022-07-30T12:20:53;22.60;93.40
14097;DHT22;7125;48.106;11.544;2022-07-30T12:23:20;22.70;93.60
14097;DHT22;7125;48.106;11.544;2022-07-30T12:25:48;22.70;92.10
14097;DHT22;7125;48.106;11.544;2022-07-30T12:28:19;22.60;91.50
14097;DHT22;7125;48.106;11.544;2022-07-30T12:30:46;22.60;91.70
14097;DHT22;7125;48.106;11.544;2022-07-30T12:33:14;22.80;91.50
14097;DHT22;7125;48.106;11.544;2022-07-30T12:35:43;23.00;90.70
14097;DHT22;7125;48.106;11.544;2022-07-30T12:38:11;23.10;91.80
14097;DHT22;7125;48.106;11.544;2022-07-30T12:40:54;23.30;91.70
14097;DHT22;7125;48.106;11.544;2022-07-30T12:43:41;23.50;88.50
14097;DHT22;7125;48.106;11.544;2022-07-30T12:46:08;23.60;86.60
14097;DHT22;7125;48.106;11.544;2022-07-30T12:48:35;23.40;84.20
14097;DHT22;7125;48.106;11.544;2022-07-30T12:51:07;23.30;83.60
14097;DHT22;7125;48.106;11.544;2022-07-30T12:53:35;23.20;85.20
14097;DHT22;7125;48.106;11.544;2022-07-30T12:56:11;23.20;87.40
14097;DHT22;7125;48.106;11.544;2022-07-30T12:58:39;23.20;84.40
14097;DHT22;7125;48.106;11.544;2022-07-30T13:01:08;23.20;84.60
14097;DHT22;7125;48.106;11.544;2022-07-30T13:03:35;23.20;85.90
14097;DHT22;7125;48.106;11.544;2022-07-30T13:06:15;23.20;85.70
14097;DHT22;7125;48.106;11.544;2022-07-30T13:08:52;23.20;85.10
14097;DHT22;7125;48.106;11.544;2022-07-30T13:11:21;23.40;86.40
14097;DHT22;7125;48.106;11.544;2022-07-30T13:13:49;23.50;84.40
14097;DHT22;7125;48.106;11.544;2022-07-30T13:16:17;23.60;84.50
14097;DHT22;7125;48.106;11.544;2022-07-30T13:18:45;23.70;83.20
14097;DHT22;7125;48.106;11.544;2022-07-30T13:21:14;23.70;84.00
14097;DHT22;7125;48.106;11.544;2022-07-30T13:23:40;23.60;84.80
14097;DHT22;7125;48.106;11.544;2022-07-30T13:26:08;23.50;82.40
14097;DHT22;7125;48.106;11.544;2022-07-30T13:28:36;23.50;82.50
14097;DHT22;7125;48.106;11.544;2022-07-30T13:31:04;23.60;80.60
14097;DHT22;7125;48.106;11.544;2022-07-30T13:33:32;23.90;82.00
14097;DHT22;7125;48.106;11.544;2022-07-30T13:35:59;24.20;79.70
14097;DHT22;7125;48.106;11.544;2022-07-30T13:38:30;24.50;78.90
14097;DHT22;7125;48.106;11.544;2022-07-30T13:40:57;24.70;78.50
14097;DHT22;7125;48.106;11.544;2022-07-30T13:43:24;24.90;78.10
14097;DHT22;7125;48.106;11.544;2022-07-30T13:45:52;25.10;78.10
14097;DHT22;7125;48.106;11.544;2022-07-30T13:48:19;25.20;76.30
14097;DHT22;7125;48.106;11.544;2022-07-30T13:50:46;25.30;75.50
14097;DHT22;7125;48.106;11.544;2022-07-30T13:53:13;25.40;75.30
14097;DHT22;7125;48.106;11.544;2022-07-30T13:55:41;25.60;75.60
14097;DHT22;7125;48.106;11.544;2022-07-30T13:58:08;25.60;74.00
14097;DHT22;7125;48.106;11.544;2022-07-30T14:00:35;25.50;73.60
14097;DHT22;7125;48.106;11.544;2022-07-30T14:03:05;25.10;74.50
14097;DHT22;7125;48.106;11.544;2022-07-30T14:05:32;24.80;75.90
14097;DHT22;7125;48.106;11.544;2022-07-30T14:08:00;24.60;73.80
14097;DHT22;7125;48.106;11.544;2022-07-30T14:10:28;24.60;75.80
14097;DHT22;7125;48.106;11.544;2022-07-30T14:12:56;24.80;78.10
14097;DHT22;7125;48.106;11.544;2022-07-30T14:15:27;25.10;76.80
14097;DHT22;7125;48.106;11.544;2022-07-30T14:17:55;25.30;72.20
14097;DHT22;7125;48.106;11.544;2022-07-30T14:20:23;25.60;75.10
14097;DHT22;7125;48.106;11.544;2022-07-30T14:22:50;25.80;73.70
14097;DHT22;7125;48.106;11.544;2022-07-30T14:25:17;26.00;71.40
14097;DHT22;7125;48.106;11.544;2022-07-30T14:27:44;26.20;72.00
14097;DHT22;7125;48.106;11.544;2022-07-30T14:30:13;26.30;69.30
14097;DHT22;7125;48.106;11.544;2022-07-30T14:32:40;26.40;69.50
14097;DHT22;7125;48.106;11.544;2022-07-30T14:35:08;26.50;67.60
14097;DHT22;7125;48.106;11.544;2022-07-30T14:37:35;26.70;70.40
14097;DHT22;7125;48.106;11.544;2022-07-30T14:40:03;26.70;66.60
14097;DHT22;7125;48.106;11.544;2022-07-30T14:42:30;26.50;66.00
14097;DHT22;7125;48.106;11.544;2022-07-30T14:44:57;26.20;67.70
14097;DHT22;7125;48.106;11.544;2022-07-30T14:47:25;25.90;67.70
14097;DHT22;7125;48.106;11.544;2022-07-30T14:49:52;25.60;69.00
14097;DHT22;7125;48.106;11.544;2022-07-30T14:52:19;25.20;69.40
14097;DHT22;7125;48.106;11.544;2022-07-30T14:54:46;24.90;70.60
14097;DHT22;7125;48.106;11.544;2022-07-30T14:57:15;24.70;71.40
14097;DHT22;7125;48.106;11.544;2022-07-30T14:59:41;24.70;70.80
14097;DHT22;7125;48.106;11.544;2022-07-30T15:02:09;24.90;70.40
14097;DHT22;7125;48.106;11.544;2022-07-30T15:04:37;25.20;68.80
14097;DHT22;7125;48.106;11.544;2022-07-30T15:07:05;25.40;68.70
14097;DHT22;7125;48.106;11.544;2022-07-30T15:09:32;25.30;67.00
14097;DHT22;7125;48.106;11.544;2022-07-30T15:11:59;25.00;69.40
14097;DHT22;7125;48.106;11.544;2022-07-30T15:14:28;24.80;70.40
14097;DHT22;7125;48.106;11.544;2022-07-30T15:16:55;24.50;70.80
14097;DHT22;7125;48.106;11.544;2022-07-30T15:19:22;24.50;71.00
14097;DHT22;7125;48.106;11.544;2022-07-30T15:21:50;24.70;70.50
14097;DHT22;7125;48.106;11.544;2022-07-30T15:24:17;24.80;71.00
14097;DHT22;7125;48.106;11.544;2022-07-30T15:26:44;25.10;70.80
14097;DHT22;7125;48.106;11.544;2022-07-30T15:29:11;25.40;65.70
14097;DHT22;7125;48.106;11.544;2022-07-30T15:31:38;25.60;67.50
14097;DHT22;7125;48.106;11.544;2022-07-30T15:34:05;25.50;66.70
14097;DHT22;7125;48.106;11.544;2022-07-30T15:36:35;25.20;67.40
14097;DHT22;7125;48.106;11.544;2022-07-30T15:39:04;25.00;69.90
14097;DHT22;7125;48.106;11.544;2022-07-30T15:41:32;24.80;70.00
14097;DHT22;7125;48.106;11.544;2022-07-30T15:44:00;24.60;69.80
14097;DHT22;7125;48.106;11.544;2022-07-30T15:46:27;24.40;69.80
14097;DHT22;7125;48.106;11.544;2022-07-30T15:48:54;24.40;73.00
14097;DHT22;7125;48.106;11.544;2022-07-30T15:51:21;24.60;71.60
14097;DHT22;7125;48.106;11.544;2022-07-30T15:53:50;25.00;69.70
14097;DHT22;7125;48.106;11.544;2022-07-30T15:56:18;25.40;72.20